Time;durP1;ratioP1;P1;durP2;ratioP2;P2;SDS_P1;SDS_P2;PMS_P1;PMS_P2;Temp;Humidity;BMP_temperature;BMP_pressure;BME280_temperature;BME280_humidity;BME280_pressure;Samples;Min_cycle;Max_cycle;Signal;HPM_P1;HPM_P2
2021/10/08 00:02:24;;;;;;;25.40;3.72;;;;;13.50;101086.00;;;;4858216;29;20060;-76
2021/10/08 00:04:53;;;;;;;23.67;4.20;;;;;13.30;101062.00;;;;4858729;29;20061;-77
2021/10/08 00:07:26;;;;;;;28.70;5.00;;;;;13.30;101083.00;;;;4859012;29;20045;-76
2021/10/08 00:09:56;;;;;;;25.42;4.10;;;;;13.40;101088.00;;;;4858000;29;20049;-77
2021/10/08 00:12:27;;;;;;;23.55;4.15;;;;;13.50;101082.00;;;;4856642;29;20432;-77
2021/10/08 00:14:57;;;;;;;30.98;4.35;;;;;13.50;101081.00;;;;4857784;29;20534;-77
2021/10/08 00:17:26;;;;;;;22.70;4.10;;;;;13.50;101081.00;;;;4858225;29;20049;-77
2021/10/08 00:19:56;;;;;;;28.45;4.07;;;;;13.40;101075.00;;;;4857113;29;20041;-77
2021/10/08 00:22:28;;;;;;;22.23;3.90;;;;;13.40;101101.00;;;;4857083;29;20525;-77
2021/10/08 00:24:58;;;;;;;32.60;4.57;;;;;13.40;101083.00;;;;4855972;29;20059;-77
2021/10/08 00:27:28;;;;;;;24.45;4.22;;;;;13.40;101093.00;;;;4857371;29;20046;-77
2021/10/08 00:29:57;;;;;;;32.17;5.90;;;;;13.30;101102.00;;;;4856156;29;20057;-76
2021/10/08 00:32:30;;;;;;;31.05;4.35;;;;;13.10;101085.00;;;;4857629;29;20073;-77
2021/10/08 00:35:00;;;;;;;25.45;4.32;;;;;13.00;101073.00;;;;4856065;29;20054;-77
2021/10/08 00:37:30;;;;;;;24.00;3.88;;;;;12.90;101084.00;;;;4855674;29;20060;-77
2021/10/08 00:40:00;;;;;;;167.15;77.85;;;;;13.00;101081.00;;;;4856239;29;20113;-77
2021/10/08 00:42:30;;;;;;;28.77;5.47;;;;;13.20;101091.00;;;;4856214;29;20081;-75
2021/10/08 00:45:00;;;;;;;33.28;6.00;;;;;13.10;101099.00;;;;4855876;29;20141;-76
2021/10/08 00:47:29;;;;;;;161.57;65.85;;;;;13.10;101082.00;;;;4857321;29;20052;-77
2021/10/08 00:50:01;;;;;;;28.00;3.95;;;;;13.40;101096.00;;;;4855003;29;20094;-78
2021/10/08 00:52:32;;;;;;;30.58;4.22;;;;;13.50;101087.00;;;;4855825;29;20062;-77
2021/10/08 00:55:04;;;;;;;23.60;4.45;;;;;13.50;101089.00;;;;4857797;29;20086;-77
2021/10/08 00:57:34;;;;;;;19.02;3.75;;;;;13.50;101105.00;;;;4855752;29;20114;-77
2021/10/08 01:00:04;;;;;;;27.17;3.58;;;;;13.30;101095.00;;;;4857538;29;20057;-77
2021/10/08 01:02:33;;;;;;;22.42;3.88;;;;;13.40;101095.00;;;;4856646;29;20080;-76
2021/10/08 01:05:05;;;;;;;31.02;3.55;;;;;13.30;101104.00;;;;4855557;29;20136;-76
2021/10/08 01:07:35;;;;;;;25.40;3.58;;;;;13.30;101111.00;;;;4856965;29;20052;-77
2021/10/08 01:10:07;;;;;;;16.38;3.55;;;;;13.40;101096.00;;;;4857234;29;20109;-76
2021/10/08 01:12:39;;;;;;;31.73;3.70;;;;;13.30;101114.00;;;;4855333;29;20049;-76
2021/10/08 01:15:11;;;;;;;24.40;4.68;;;;;13.40;101109.00;;;;4855009;29;20077;-76
2021/10/08 01:17:54;;;;;;;21.80;3.55;;;;;13.50;101100.00;;;;4854830;29;20142;-76
2021/10/08 01:20:28;;;;;;;33.88;4.60;;;;;13.50;101116.00;;;;4840466;29;20520;-76
2021/10/08 01:23:06;;;;;;;19.77;3.25;;;;;13.50;101114.00;;;;4854682;29;20049;-75
2021/10/08 01:25:43;;;;;;;20.85;3.45;;;;;13.50;101100.00;;;;4854951;29;20480;-76
2021/10/08 01:28:15;;;;;;;28.38;4.28;;;;;13.60;101083.00;;;;4854751;29;20049;-76
2021/10/08 01:30:47;;;;;;;27.27;3.20;;;;;13.60;101089.00;;;;4854139;29;20064;-76
2021/10/08 01:33:20;;;;;;;16.95;3.42;;;;;13.50;101075.00;;;;4854945;29;20064;-76
2021/10/08 01:35:54;;;;;;;23.73;4.22;;;;;13.30;101095.00;;;;4854641;29;20057;-76
2021/10/08 01:38:23;;;;;;;18.98;3.25;;;;;13.10;101073.00;;;;4856522;29;20078;-76
2021/10/08 01:40:55;;;;;;;29.65;3.90;;;;;13.00;101063.00;;;;4855489;29;20433;-76
2021/10/08 01:43:25;;;;;;;27.63;3.33;;;;;12.90;101083.00;;;;4854913;29;20088;-77
2021/10/08 01:45:57;;;;;;;25.40;4.07;;;;;12.70;101084.00;;;;4854625;29;20058;-76
2021/10/08 01:48:37;;;;;;;23.65;3.20;;;;;12.60;101096.00;;;;4854107;29;20057;-76
2021/10/08 01:51:07;;;;;;;19.30;3.35;;;;;12.50;101090.00;;;;4856525;29;20049;-77
2021/10/08 01:53:43;;;;;;;17.90;3.30;;;;;12.40;101101.00;;;;4855200;29;20057;-77
2021/10/08 01:56:14;;;;;;;19.40;3.87;;;;;12.50;101107.00;;;;4855940;29;20098;-76
2021/10/08 01:58:58;;;;;;;17.10;3.22;;;;;12.40;101101.00;;;;4853907;29;20061;-76
2021/10/08 02:01:29;;;;;;;25.85;3.72;;;;;12.20;101099.00;;;;4854873;29;20057;-76
2021/10/08 02:04:04;;;;;;;20.63;3.65;;;;;12.10;101104.00;;;;4853926;29;20053;-77
2021/10/08 02:06:34;;;;;;;31.70;3.53;;;;;12.00;101085.00;;;;4854874;29;20056;-76
2021/10/08 02:09:07;;;;;;;26.98;4.28;;;;;11.90;101096.00;;;;4853762;29;20058;-76
2021/10/08 02:11:40;;;;;;;20.63;3.15;;;;;11.90;101101.00;;;;4854688;29;20485;-76
2021/10/08 02:14:11;;;;;;;20.55;3.25;;;;;11.90;101086.00;;;;4854272;29;20617;-76
2021/10/08 02:16:46;;;;;;;23.40;4.07;;;;;11.80;101075.00;;;;4854113;29;20049;-76
2021/10/08 02:19:16;;;;;;;27.80;4.65;;;;;11.70;101083.00;;;;4853815;29;20053;-76
2021/10/08 02:21:53;;;;;;;22.77;3.08;;;;;11.60;101077.00;;;;4852806;29;20148;-75
2021/10/08 02:24:24;;;;;;;25.75;4.32;;;;;11.60;101081.00;;;;4853565;29;20182;-76
2021/10/08 02:26:55;;;;;;;28.60;3.58;;;;;11.50;101061.00;;;;4855130;29;20069;-76
2021/10/08 02:29:29;;;;;;;18.02;3.10;;;;;11.50;101062.00;;;;4853688;29;20061;-76
2021/10/08 02:32:02;;;;;;;27.08;3.60;;;;;11.40;101053.00;;;;4853542;29;20057;-77
2021/10/08 02:34:33;;;;;;;36.60;3.75;;;;;11.40;101038.00;;;;4854301;29;20050;-76
2021/10/08 02:37:03;;;;;;;21.73;3.28;;;;;11.40;101049.00;;;;4855970;29;20128;-76
2021/10/08 02:39:33;;;;;;;29.50;4.07;;;;;11.60;101024.00;;;;4853711;29;20061;-76
2021/10/08 02:42:05;;;;;;;26.88;3.75;;;;;11.60;101039.00;;;;4853607;29;20073;-76
2021/10/08 02:44:39;;;;;;;28.30;4.63;;;;;11.50;101031.00;;;;4854239;29;20061;-76
2021/10/08 02:47:10;;;;;;;27.60;3.78;;;;;11.70;101024.00;;;;4854188;29;20110;-76
2021/10/08 02:49:40;;;;;;;14.70;3.03;;;;;11.80;101032.00;;;;4855323;29;20041;-76
2021/10/08 02:52:12;;;;;;;25.30;3.78;;;;;11.70;101026.00;;;;4853451;29;20090;-76
2021/10/08 02:55:03;;;;;;;23.20;3.55;;;;;11.60;101034.00;;;;4853527;29;20046;-77
2021/10/08 02:57:36;;;;;;;31.48;4.43;;;;;11.50;101027.00;;;;4855747;29;20045;-76
2021/10/08 03:00:09;;;;;;;24.00;3.38;;;;;11.40;101036.00;;;;4853819;29;20063;-76
2021/10/08 03:02:39;;;;;;;23.00;3.47;;;;;11.40;101034.00;;;;4855297;29;20548;-77
2021/10/08 03:05:10;;;;;;;19.13;3.13;;;;;11.40;101023.00;;;;4854120;29;20056;-76
2021/10/08 03:07:40;;;;;;;23.63;3.38;;;;;11.30;101022.00;;;;4854676;29;20057;-76
2021/10/08 03:10:11;;;;;;;20.65;3.40;;;;;11.20;101019.00;;;;4854034;29;20057;-76
2021/10/08 03:12:43;;;;;;;23.38;3.58;;;;;11.40;101013.00;;;;4855048;29;20083;-76
2021/10/08 03:15:16;;;;;;;27.35;3.22;;;;;11.50;100999.00;;;;4854537;29;20129;-76
2021/10/08 03:17:47;;;;;;;;;;;;;11.50;101014.00;;;;4854536;29;20049;-76
2021/10/08 03:20:20;;;;;;;24.90;4.22;;;;;11.50;101019.00;;;;4854696;29;19951;-76
2021/10/08 03:22:50;;;;;;;28.55;4.05;;;;;11.40;101013.00;;;;4854504;29;20481;-76
2021/10/08 03:25:20;;;;;;;24.70;3.20;;;;;11.20;101016.00;;;;4853219;29;20068;-76
2021/10/08 03:27:50;;;;;;;21.05;3.30;;;;;11.20;100993.00;;;;4855193;29;20068;-76
2021/10/08 03:30:20;;;;;;;18.88;3.13;;;;;11.10;101015.00;;;;4858740;29;20069;-76
2021/10/08 03:32:50;;;;;;;28.25;3.55;;;;;11.10;101004.00;;;;4856826;29;20068;-76
2021/10/08 03:35:21;;;;;;;25.48;3.30;;;;;11.00;101001.00;;;;4857699;29;20057;-76
2021/10/08 03:38:00;;;;;;;32.42;3.30;;;;;11.00;101001.00;;;;4859657;29;20077;-76
2021/10/08 03:40:31;;;;;;;28.42;3.40;;;;;11.10;101014.00;;;;4856968;29;20045;-76
2021/10/08 03:43:04;;;;;;;22.67;3.53;;;;;11.10;101003.00;;;;4857306;29;20057;-76
2021/10/08 03:45:44;;;;;;;22.83;3.53;;;;;11.10;101010.00;;;;4858765;29;20505;-76
2021/10/08 03:50:50;;;;;;;22.25;3.25;;;;;11.00;101001.00;;;;4858545;29;20128;-76
2021/10/08 03:53:19;;;;;;;19.35;3.15;;;;;10.90;101005.00;;;;4858106;29;20063;-76
2021/10/08 03:55:52;;;;;;;24.10;3.05;;;;;10.90;100995.00;;;;4857953;29;20143;-77
2021/10/08 03:58:25;;;;;;;13.63;2.75;;;;;10.80;100991.00;;;;4858711;29;20401;-79
2021/10/08 04:00:55;;;;;;;24.42;3.22;;;;;10.70;100988.00;;;;4858668;29;20061;-78
2021/10/08 04:03:26;;;;;;;15.57;2.80;;;;;10.60;100983.00;;;;4857117;29;20085;-79
2021/10/08 04:05:58;;;;;;;24.75;3.38;;;;;10.60;100970.00;;;;4856644;29;20406;-79
2021/10/08 04:08:28;;;;;;;17.67;2.78;;;;;10.50;100960.00;;;;4856706;29;20050;-79
2021/10/08 04:10:57;;;;;;;24.90;3.08;;;;;10.50;100952.00;;;;4857351;29;20112;-79
2021/10/08 04:13:27;;;;;;;25.90;3.70;;;;;10.50;100932.00;;;;4858479;29;20080;-79
2021/10/08 04:15:58;;;;;;;25.45;3.05;;;;;10.50;100941.00;;;;4856524;29;20101;-78
2021/10/08 04:18:28;;;;;;;26.70;3.65;;;;;10.50;100942.00;;;;4855749;29;20065;-79
2021/10/08 04:20:58;;;;;;;19.30;2.60;;;;;10.50;100917.00;;;;4855972;29;20057;-78
2021/10/08 04:23:28;;;;;;;22.90;3.50;;;;;10.50;100934.00;;;;4855885;29;20520;-79
2021/10/08 04:25:58;;;;;;;17.08;2.72;;;;;10.50;100930.00;;;;4855453;29;20152;-79
2021/10/08 04:28:27;;;;;;;15.20;2.15;;;;;10.50;100935.00;;;;4855034;29;20076;-79
2021/10/08 04:30:57;;;;;;;26.48;3.33;;;;;10.50;100930.00;;;;4855239;29;20085;-79
2021/10/08 04:33:28;;;;;;;26.17;2.70;;;;;10.40;100923.00;;;;4855924;29;20140;-79
2021/10/08 04:36:01;;;;;;;20.65;2.70;;;;;10.30;100915.00;;;;4856190;29;20406;-79
2021/10/08 04:38:35;;;;;;;13.63;2.75;;;;;10.30;100923.00;;;;4856454;29;20049;-79
2021/10/08 04:41:10;;;;;;;26.50;3.38;;;;;10.30;100906.00;;;;4855657;29;20102;-79
2021/10/08 04:43:42;;;;;;;18.27;2.35;;;;;10.30;100904.00;;;;4855284;29;20156;-79
2021/10/08 04:46:14;;;;;;;24.58;3.72;;;;;10.30;100905.00;;;;4856496;29;20061;-79
2021/10/08 04:48:44;;;;;;;16.95;3.10;;;;;10.30;100904.00;;;;4859834;29;20045;-80
2021/10/08 04:51:13;;;;;;;19.70;3.40;;;;;10.30;100893.00;;;;4856688;29;20474;-79
2021/10/08 04:53:43;;;;;;;16.20;2.70;;;;;10.30;100878.00;;;;4856784;29;20076;-79
2021/10/08 04:56:13;;;;;;;17.52;3.00;;;;;10.30;100886.00;;;;4854884;29;20053;-79
2021/10/08 04:58:42;;;;;;;19.20;2.15;;;;;10.30;100886.00;;;;4855705;29;20102;-79
2021/10/08 05:01:11;;;;;;;16.10;2.63;;;;;10.30;100879.00;;;;4856859;29;20046;-79
2021/10/08 05:03:42;;;;;;;17.75;2.45;;;;;10.30;100893.00;;;;4855513;29;20053;-79
2021/10/08 05:06:11;;;;;;;19.70;2.45;;;;;10.30;100876.00;;;;4855503;29;20045;-79
2021/10/08 05:08:46;;;;;;;15.70;2.38;;;;;10.20;100862.00;;;;4854739;29;20084;-79
2021/10/08 05:11:17;;;;;;;12.35;2.22;;;;;10.30;100857.00;;;;4855167;29;20061;-79
2021/10/08 05:13:47;;;;;;;19.60;2.75;;;;;10.30;100854.00;;;;4854906;29;20057;-79
2021/10/08 05:16:17;;;;;;;22.10;2.65;;;;;10.30;100865.00;;;;4856304;29;20074;-79
2021/10/08 05:18:47;;;;;;;16.35;2.72;;;;;10.30;100860.00;;;;4854320;29;20053;-79
2021/10/08 05:21:20;;;;;;;11.05;2.05;;;;;10.40;100875.00;;;;4854736;29;20445;-79
2021/10/08 05:23:51;;;;;;;20.23;2.75;;;;;10.30;100876.00;;;;4855786;29;20038;-79
2021/10/08 05:26:21;;;;;;;14.80;2.15;;;;;10.30;100861.00;;;;4854166;29;20049;-79
2021/10/08 05:28:51;;;;;;;12.95;2.10;;;;;10.30;100872.00;;;;4854394;29;20053;-79
2021/10/08 05:31:22;;;;;;;14.63;2.67;;;;;10.20;100858.00;;;;4854732;29;20053;-79
2021/10/08 05:33:53;;;;;;;18.58;2.38;;;;;10.20;100871.00;;;;4854585;29;20060;-79
2021/10/08 05:36:25;;;;;;;13.35;2.03;;;;;10.10;100845.00;;;;4854827;29;20078;-79
2021/10/08 05:38:55;;;;;;;18.92;2.85;;;;;10.10;100850.00;;;;4854438;29;20518;-79
2021/10/08 05:41:24;;;;;;;19.08;2.22;;;;;10.00;100847.00;;;;4854338;29;20049;-79
2021/10/08 05:43:54;;;;;;;16.75;2.28;;;;;10.00;100838.00;;;;4855043;29;20084;-79
2021/10/08 05:46:23;;;;;;;17.90;2.28;;;;;10.00;100849.00;;;;4854771;29;20429;-79
2021/10/08 05:48:53;;;;;;;16.45;2.42;;;;;10.00;100826.00;;;;4854262;29;20098;-79
2021/10/08 05:51:23;;;;;;;21.20;2.17;;;;;10.00;100828.00;;;;4853985;29;20092;-79
2021/10/08 05:53:52;;;;;;;14.98;2.80;;;;;10.00;100833.00;;;;4855407;29;20061;-79
2021/10/08 05:56:22;;;;;;;11.60;1.70;;;;;9.90;100838.00;;;;4855442;29;20045;-79
2021/10/08 05:58:51;;;;;;;13.18;2.42;;;;;9.90;100835.00;;;;4853851;29;20504;-79
2021/10/08 06:01:20;;;;;;;17.55;2.20;;;;;9.90;100821.00;;;;4854255;29;20436;-79
2021/10/08 06:03:51;;;;;;;15.45;2.30;;;;;9.90;100839.00;;;;4854008;29;20053;-79
2021/10/08 06:06:21;;;;;;;16.60;2.42;;;;;9.90;100827.00;;;;4853931;29;20057;-79
2021/10/08 06:08:52;;;;;;;14.57;1.98;;;;;9.90;100829.00;;;;4854918;29;20097;-79
2021/10/08 06:11:21;;;;;;;9.93;2.03;;;;;9.90;100816.00;;;;4853996;29;20057;-79
2021/10/08 06:13:51;;;;;;;13.55;1.90;;;;;9.80;100797.00;;;;4854366;29;20500;-79
2021/10/08 06:16:22;;;;;;;;;;;;;9.70;100799.00;;;;4854351;29;20513;-79
2021/10/08 06:18:52;;;;;;;17.80;2.08;;;;;9.70;100800.00;;;;4854242;29;20397;-79
2021/10/08 06:21:22;;;;;;;16.65;2.45;;;;;9.60;100801.00;;;;4854183;29;20049;-79
2021/10/08 06:23:53;;;;;;;13.32;2.40;;;;;9.60;100783.00;;;;4854120;29;20073;-78
2021/10/08 06:26:23;;;;;;;19.70;2.00;;;;;9.60;100796.00;;;;4853523;29;20061;-79
2021/10/08 06:28:52;;;;;;;15.57;2.00;;;;;9.50;100779.00;;;;4853274;29;20514;-79
2021/10/08 06:31:22;;;;;;;14.52;1.88;;;;;9.50;100776.00;;;;4853420;29;20498;-79
2021/10/08 06:33:53;;;;;;;23.08;2.33;;;;;9.50;100779.00;;;;4854906;29;20113;-79
2021/10/08 06:36:23;;;;;;;17.17;2.05;;;;;9.50;100780.00;;;;4853263;29;20064;-79
2021/10/08 06:38:54;;;;;;;12.00;2.17;;;;;9.50;100795.00;;;;4853585;29;20445;-79
2021/10/08 06:41:25;;;;;;;15.48;2.13;;;;;9.50;100794.00;;;;4853622;29;20429;-78
2021/10/08 06:44:02;;;;;;;18.15;2.25;;;;;9.50;100790.00;;;;4853560;29;20868;-79
2021/10/08 06:46:32;;;;;;;15.07;2.05;;;;;9.50;100768.00;;;;4853950;29;20561;-79
2021/10/08 06:49:01;;;;;;;13.30;1.77;;;;;9.40;100789.00;;;;4853582;29;20041;-79
2021/10/08 06:51:31;;;;;;;17.30;2.47;;;;;9.40;100785.00;;;;4853515;29;20046;-79
2021/10/08 06:54:01;;;;;;;13.25;2.00;;;;;9.30;100767.00;;;;4853192;29;20045;-79
2021/10/08 06:56:32;;;;;;;15.75;2.08;;;;;9.30;100786.00;;;;4853173;29;20068;-79
2021/10/08 06:59:07;;;;;;;11.27;2.03;;;;;9.30;100770.00;;;;4852811;29;20125;-79
2021/10/08 07:01:37;;;;;;;16.25;2.35;;;;;9.30;100787.00;;;;4852515;29;20053;-79
2021/10/08 07:04:08;;;;;;;19.60;2.05;;;;;9.30;100782.00;;;;4853189;29;20050;-79
2021/10/08 07:06:41;;;;;;;20.63;2.08;;;;;9.30;100769.00;;;;4853063;29;20109;-80
2021/10/08 07:09:19;;;;;;;13.55;2.00;;;;;9.20;100765.00;;;;4852678;29;20097;-80
2021/10/08 07:11:49;;;;;;;21.85;2.42;;;;;9.20;100745.00;;;;4854423;29;20045;-79
2021/10/08 07:14:20;;;;;;;17.52;2.10;;;;;9.10;100746.00;;;;4853374;29;20145;-79
2021/10/08 07:16:54;;;;;;;11.82;1.77;;;;;9.10;100756.00;;;;4854556;29;20564;-79
2021/10/08 07:19:24;;;;;;;16.98;2.28;;;;;9.10;100751.00;;;;4854386;29;20050;-78
2021/10/08 07:21:54;;;;;;;12.43;1.85;;;;;9.20;100764.00;;;;4853765;29;20525;-79
2021/10/08 07:24:23;;;;;;;22.40;2.53;;;;;9.10;100747.00;;;;4835824;29;20060;-79
2021/10/08 07:26:53;;;;;;;26.50;2.88;;;;;9.10;100742.00;;;;4835988;29;20053;-79
2021/10/08 07:29:23;;;;;;;18.08;1.95;;;;;9.10;100748.00;;;;4835884;29;20178;-79
2021/10/08 07:31:52;;;;;;;20.75;2.25;;;;;9.00;100737.00;;;;4834392;29;20053;-79
2021/10/08 07:34:21;;;;;;;12.85;1.73;;;;;9.00;100758.00;;;;4835685;29;20568;-79
2021/10/08 07:36:51;;;;;;;17.88;2.20;;;;;9.10;100745.00;;;;4835950;29;20105;-79
2021/10/08 07:39:20;;;;;;;17.05;2.30;;;;;9.00;100746.00;;;;4836330;29;20061;-79
2021/10/08 07:41:50;;;;;;;21.83;2.90;;;;;9.00;100737.00;;;;4835884;29;20111;-80
2021/10/08 07:44:19;;;;;;;17.48;2.25;;;;;9.00;100758.00;;;;4836321;29;20046;-80
2021/10/08 07:46:51;;;;;;;26.55;2.53;;;;;9.00;100751.00;;;;4835087;29;20057;-79
2021/10/08 07:49:21;;;;;;;14.48;2.08;;;;;9.10;100749.00;;;;4835527;29;20049;-79
2021/10/08 07:51:51;;;;;;;16.58;2.08;;;;;9.00;100742.00;;;;4835205;29;20129;-80
2021/10/08 07:54:20;;;;;;;27.25;2.75;;;;;9.10;100761.00;;;;4835409;29;20046;-79
2021/10/08 07:56:50;;;;;;;16.23;2.20;;;;;9.10;100754.00;;;;4834934;29;20543;-79
2021/10/08 07:59:19;;;;;;;16.13;2.58;;;;;9.20;100765.00;;;;4840054;29;20068;-77
2021/10/08 08:01:50;;;;;;;25.17;2.80;;;;;9.20;100765.00;;;;4839822;29;20041;-80
2021/10/08 08:04:19;;;;;;;16.75;2.67;;;;;9.20;100774.00;;;;4836762;29;20484;-80
2021/10/08 08:06:49;;;;;;;23.77;2.90;;;;;9.10;100760.00;;;;4835754;29;20693;-79
2021/10/08 08:09:18;;;;;;;14.18;2.30;;;;;9.20;100757.00;;;;4835521;29;20064;-81
2021/10/08 08:11:48;;;;;;;23.02;3.03;;;;;9.10;100747.00;;;;4833799;29;20062;-80
2021/10/08 08:14:17;;;;;;;23.08;3.00;;;;;9.00;100760.00;;;;4837915;29;20048;-79
2021/10/08 08:16:47;;;;;;;25.90;3.05;;;;;9.00;100763.00;;;;4838987;29;20065;-79
2021/10/08 08:19:17;;;;;;;15.50;2.50;;;;;9.00;100758.00;;;;4838571;29;20058;-80
2021/10/08 08:21:46;;;;;;;15.63;2.72;;;;;9.00;100760.00;;;;4838613;29;20495;-79
2021/10/08 08:24:15;;;;;;;21.85;2.63;;;;;9.00;100782.00;;;;4856064;29;20110;-79
2021/10/08 08:26:45;;;;;;;17.67;2.83;;;;;9.00;100764.00;;;;4855827;29;20592;-80
2021/10/08 08:29:14;;;;;;;19.08;2.40;;;;;9.00;100786.00;;;;4854777;29;20330;-80
2021/10/08 08:31:44;;;;;;;19.90;2.75;;;;;9.00;100766.00;;;;4856921;29;20106;-79
2021/10/08 08:34:13;;;;;;;17.48;2.40;;;;;9.10;100766.00;;;;4855795;29;20068;-79
2021/10/08 08:36:43;;;;;;;26.65;2.70;;;;;9.00;100759.00;;;;4856728;29;20057;-80
2021/10/08 08:39:15;;;;;;;23.92;2.47;;;;;8.90;100757.00;;;;4856877;29;20425;-81
2021/10/08 08:41:44;;;;;;;24.42;2.53;;;;;8.90;100778.00;;;;4856797;29;20502;-80
2021/10/08 08:44:15;;;;;;;12.10;2.20;;;;;8.90;100771.00;;;;4856463;29;20045;-79
2021/10/08 08:46:44;;;;;;;16.73;2.30;;;;;8.80;100760.00;;;;4856627;29;20121;-79
2021/10/08 08:49:14;;;;;;;19.45;2.30;;;;;8.90;100783.00;;;;4856998;29;20124;-79
2021/10/08 08:51:43;;;;;;;24.05;2.78;;;;;8.90;100771.00;;;;4856741;29;20061;-79
2021/10/08 08:54:12;;;;;;;15.88;2.58;;;;;8.90;100783.00;;;;4856934;29;20050;-79
2021/10/08 08:56:42;;;;;;;15.57;2.40;;;;;8.90;100786.00;;;;4857208;29;20045;-80
2021/10/08 08:59:13;;;;;;;20.63;2.90;;;;;8.90;100789.00;;;;4856520;29;20132;-79
2021/10/08 09:02:03;;;;;;;19.45;2.58;;;;;8.90;100785.00;;;;4856801;29;20497;-79
2021/10/08 09:04:33;;;;;;;23.27;2.83;;;;;8.90;100797.00;;;;4856476;29;20100;-78
2021/10/08 09:07:14;;;;;;;20.80;2.58;;;;;8.90;100777.00;;;;4856312;29;20046;-79
2021/10/08 09:09:44;;;;;;;20.92;2.53;;;;;9.00;100789.00;;;;4855896;29;20085;-78
2021/10/08 09:12:14;;;;;;;19.52;2.50;;;;;9.10;100801.00;;;;4856068;29;20494;-79
2021/10/08 09:14:43;;;;;;;22.75;2.80;;;;;9.20;100796.00;;;;4856329;29;20136;-78
2021/10/08 09:17:21;;;;;;;31.52;3.45;;;;;9.20;100789.00;;;;4856370;29;20147;-79
2021/10/08 09:20:03;;;;;;;22.25;3.45;;;;;9.30;100803.00;;;;4856462;29;20042;-81
2021/10/08 09:22:32;;;;;;;;;;;;;9.40;100814.00;;;;4856537;29;20038;-78
2021/10/08 09:25:35;;;;;;;23.08;3.20;;;;;9.40;100813.00;;;;4856193;29;19980;-80
2021/10/08 09:28:08;;;;;;;22.90;3.20;;;;;9.50;100812.00;;;;4856284;29;20421;-80
2021/10/08 09:30:43;;;;;;;20.33;3.28;;;;;9.70;100831.00;;;;4855548;29;20078;-80
2021/10/08 09:33:19;;;;;;;28.52;3.60;;;;;9.80;100834.00;;;;4854063;29;20045;-80
2021/10/08 09:35:55;;;;;;;33.25;4.18;;;;;9.90;100827.00;;;;4855858;29;20053;-80
2021/10/08 09:38:25;;;;;;;31.85;4.43;;;;;10.00;100844.00;;;;4856183;29;20056;-78
2021/10/08 09:40:58;;;;;;;22.13;4.35;;;;;10.20;100843.00;;;;4855847;29;20114;-78
2021/10/08 09:43:32;;;;;;;12.25;3.35;;;;;10.30;100838.00;;;;4855457;29;20069;-78
2021/10/08 09:46:04;;;;;;;21.80;3.50;;;;;10.50;100837.00;;;;4856627;29;20045;-78
2021/10/08 09:48:44;;;;;;;17.13;3.90;;;;;10.60;100862.00;;;;4856004;29;20489;-78
2021/10/08 09:51:21;;;;;;;24.40;4.22;;;;;10.80;100844.00;;;;4856421;29;20477;-78
2021/10/08 09:53:50;;;;;;;18.90;3.30;;;;;10.90;100850.00;;;;4854758;29;20459;-79
2021/10/08 09:56:41;;;;;;;27.65;4.20;;;;;11.10;100839.00;;;;4855487;29;20053;-80
2021/10/08 09:59:13;;;;;;;22.30;3.80;;;;;11.20;100835.00;;;;4855489;29;20060;-80
2021/10/08 10:01:45;;;;;;;18.92;3.13;;;;;11.50;100817.00;;;;4855770;29;20297;-78
2021/10/08 10:04:15;;;;;;;14.32;2.97;;;;;13.60;100666.00;;;;4855346;29;20045;-79
2021/10/08 10:06:45;;;;;;;14.50;3.33;;;;;14.40;100755.00;;;;4855411;29;20129;-78
2021/10/08 10:09:15;;;;;;;12.27;2.75;;;;;13.50;100816.00;;;;4854231;29;20049;-78
2021/10/08 10:11:46;;;;;;;19.75;3.03;;;;;13.20;100805.00;;;;4855218;29;20042;-78
2021/10/08 10:14:16;;;;;;;11.63;2.38;;;;;14.00;100765.00;;;;4855575;29;20125;-78
2021/10/08 10:16:46;;;;;;;14.15;2.63;;;;;13.70;100805.00;;;;4854877;29;20053;-79
2021/10/08 10:19:16;;;;;;;13.55;2.67;;;;;14.50;100743.00;;;;4853335;29;20180;-78
2021/10/08 10:21:45;;;;;;;16.50;2.90;;;;;16.50;100621.00;;;;4855427;29;20132;-78
2021/10/08 10:24:16;;;;;;;23.63;7.93;;;;;19.10;100572.00;;;;4855127;29;20053;-80
2021/10/08 10:26:46;;;;;;;28.38;4.00;;;;;20.40;100567.00;;;;4855049;29;20077;-80
2021/10/08 10:29:18;;;;;;;28.48;3.97;;;;;20.90;100552.00;;;;4853963;29;20057;-79
2021/10/08 10:31:49;;;;;;;19.38;3.50;;;;;21.10;100545.00;;;;4854682;29;20053;-80
2021/10/08 10:34:19;;;;;;;13.65;2.58;;;;;21.40;100533.00;;;;4854841;29;20050;-79
2021/10/08 10:36:49;;;;;;;14.55;2.95;;;;;21.60;100537.00;;;;4853892;29;20085;-80
2021/10/08 10:39:20;;;;;;;23.50;3.30;;;;;21.70;100529.00;;;;4855244;29;20105;-78
2021/10/08 10:42:01;;;;;;;21.70;3.13;;;;;22.30;100549.00;;;;4855688;29;20049;-79
2021/10/08 10:44:40;;;;;;;16.45;3.00;;;;;22.20;100555.00;;;;4855325;29;20046;-79
2021/10/08 10:47:23;;;;;;;18.02;3.08;;;;;22.70;100564.00;;;;4854238;29;20129;-80
2021/10/08 10:50:39;;;;;;;16.35;2.70;;;;;23.70;100564.00;;;;4854427;29;20515;-81
2021/10/08 10:53:09;;;;;;;27.08;3.47;;;;;22.90;100565.00;;;;4853376;29;20070;-83
2021/10/08 10:55:38;;;;;;;21.13;3.58;;;;;23.20;100553.00;;;;4854293;29;21131;-81
2021/10/08 10:58:10;;;;;;;26.60;3.80;;;;;23.30;100561.00;;;;4854510;29;20060;-80
2021/10/08 11:00:47;;;;;;;48.90;7.47;;;;;23.20;100538.00;;;;4854818;29;20057;-79
2021/10/08 11:03:20;;;;;;;13.50;2.65;;;;;23.20;100532.00;;;;4854506;29;20045;-79
2021/10/08 11:06:11;;;;;;;13.85;3.30;;;;;24.30;100543.00;;;;4855312;29;20051;-79
2021/10/08 11:09:19;;;;;;;15.85;3.47;;;;;23.60;100612.00;;;;4854080;29;20140;-79
2021/10/08 11:12:27;;;;;;;8.63;2.70;;;;;23.10;100583.00;;;;4833345;29;20065;-80
2021/10/08 11:17:49;;;;;;;17.08;6.65;;;;;23.40;100604.00;;;;4851166;29;20110;-79
2021/10/08 11:20:40;;;;;;;23.23;4.22;;;;;20.80;100751.00;;;;4854176;29;20053;-80
2021/10/08 11:23:18;;;;;;;;;;;;;20.20;100690.00;;;;4854508;29;20690;-78
2021/10/08 11:26:10;;;;;;;17.73;2.53;;;;;19.10;100756.00;;;;4854406;29;20046;-80
2021/10/08 11:28:43;;;;;;;11.55;2.47;;;;;18.40;100759.00;;;;4854467;29;20052;-80
2021/10/08 11:31:18;;;;;;;10.45;2.60;;;;;18.50;100764.00;;;;4854451;29;20046;-78
2021/10/08 11:33:51;;;;;;;12.85;2.80;;;;;22.00;100666.00;;;;4854262;29;20594;-78
2021/10/08 11:36:26;;;;;;;12.95;2.58;;;;;23.60;100650.00;;;;4854076;29;20053;-79
2021/10/08 11:39:16;;;;;;;11.77;2.63;;;;;24.70;100622.00;;;;4854138;29;20132;-79
2021/10/08 11:42:15;;;;;;;16.00;3.05;;;;;25.10;100601.00;;;;4854123;29;20046;-78
2021/10/08 11:45:01;;;;;;;10.90;3.15;;;;;24.40;100577.00;;;;4854077;29;20049;-79
2021/10/08 11:47:40;;;;;;;19.63;2.92;;;;;24.40;100571.00;;;;4853819;29;20057;-79
2021/10/08 11:50:26;;;;;;;12.68;2.28;;;;;24.10;100582.00;;;;4857351;29;20501;-81
2021/10/08 11:52:58;;;;;;;15.13;2.50;;;;;24.10;100588.00;;;;4857405;29;20505;-79
2021/10/08 11:55:38;;;;;;;9.13;2.50;;;;;24.00;100595.00;;;;4857645;29;20049;-79
2021/10/08 11:58:09;;;;;;;14.23;2.75;;;;;23.80;100609.00;;;;4857547;29;20065;-80
2021/10/08 12:00:44;;;;;;;13.00;3.40;;;;;23.50;100624.00;;;;4857322;29;20133;-80
2021/10/08 12:03:15;;;;;;;14.40;4.82;;;;;23.50;100639.00;;;;4856471;29;20569;-79
2021/10/08 12:05:44;;;;;;;16.58;3.42;;;;;24.20;100645.00;;;;4857743;29;20054;-80
2021/10/08 12:08:16;;;;;;;11.60;2.60;;;;;24.30;100684.00;;;;4857468;29;20042;-80
2021/10/08 12:11:08;;;;;;;7.85;2.25;;;;;24.20;100701.00;;;;4856936;29;20482;-83
2021/10/08 12:13:42;;;;;;;16.67;3.38;;;;;23.80;100718.00;;;;4857075;29;20132;-79
2021/10/08 12:16:17;;;;;;;12.27;4.20;;;;;23.60;100722.00;;;;4858090;29;20077;-80
2021/10/08 12:18:52;;;;;;;10.55;1.83;;;;;22.90;100712.00;;;;4857089;29;20045;-80
2021/10/08 12:21:29;;;;;;;9.75;1.40;;;;;23.90;100706.00;;;;4857023;29;20122;-80
2021/10/08 12:24:03;;;;;;;8.52;1.70;;;;;24.20;100710.00;;;;4856954;29;20060;-79
2021/10/08 12:26:38;;;;;;;11.40;1.80;;;;;24.30;100686.00;;;;4856460;29;20052;-79
2021/10/08 12:29:11;;;;;;;10.32;2.20;;;;;23.80;100704.00;;;;4854396;29;20080;-78
2021/10/08 12:31:59;;;;;;;7.18;1.67;;;;;24.20;100690.00;;;;4855760;29;20056;-79
2021/10/08 12:34:47;;;;;;;11.23;1.98;;;;;24.10;100794.00;;;;4856807;29;20407;-78
2021/10/08 12:37:29;;;;;;;9.88;2.05;;;;;22.70;100756.00;;;;4857227;29;20536;-81